Airfield :
LOGIN :

Register | Disclaimer

   EN    FR    IT 

 










Legend :    VFR   Marginal VFR   IFR   Intensive IFR   Very Intensive IFR
Visi :
Ceiling :
>= 8 km
>= 3000ft
5 to 8 km
1000 to 3000 ft
1500m to 5 km
500 to 1000 ft
800 to 1500m
200 to 500 ft
< 800m
< 200 ft
Symbols :   Thunderstorms  Fog  Heavy snow  Heavy precipitations  Wind > 20 kt
SIGMETs :     Misc.  Thunderstorms  Icing  Turbulence  Mountain Waves  Volcanic Ashes







- Airport Elevation : 30 ft
- IATA code : CFN


EIDL - Donegal

CURRENT METAR :
  • 301600Z 12023KT 9999 FEW049 15/08 Q0997

EXPIRED METARs :
  • 301530Z 12022KT CAVOK 15/08 Q0997
  • 301500Z 12021KT CAVOK 16/09 Q0997
  • 301400Z 12021KT 9999 FEW043 15/08 Q0996
  • 301330Z 13023KT 9999 FEW045 15/08 Q0996

TAF TAF EIDL
Valid from the 30 at 15:00 until the 30 at 21:00 UTC


301400Z 3015/3021 11022G32KT 9999 SCT040
BECMG 3016/3019 12013KT
BECMG 3019/3021 09010KT
No reported NOTAMs for that airfield.
3 SIGMETs reported for the Shannon FIR (EISN) :
 
Severe turbulence
EISN SIGMET 04 VALID 301430/301830 EINN
EISN SHANNON FIR SEV TURB FCST WI N5413 W01300 - N5200 W01125 - N5125 W00955 - N5100 W00955 - N5100 W01230 - N5406 W01400 - N5413 W01300 SFC/FL060 MOV E AT 5KT WKN=
SIGMET 02 cancelation
EISN SIGMET 03 301430/301820 EINN
EISN SHANNON FIR CNL SIGMET 02 301420/301820=
SIGMET 02  CANCELED :
Severe turbulence
EISN SIGMET 02 VALID 301420/301820 EINN
EISN SHANNON FIR SEV TURB FCST WI N5413 W01300 - N5130 W01125 - N5125 W00955 - N5100 W00955 - N5100 W01200 - N5413 W01300 SFC/FL060 MOV E AT 5KT WKN=



MET'MAP, your aeronautical weather chart ! - Copyright ORBIFLY December 2007 - Disclaimer

ORBIFLY MET'MAP TEAM :

Programming & Development : Alexandra Zaïnal
Concept & Development : Baudouin d'Aumeries
Co-Development & Prog : Marc-Olivier Méhu
Technical & hardware support : Manuel Goepfert

Contact : metmap@orbifly.com




SOURCES & CREDITS :

   NOAA